createdAt,value
2019-06-15T00:02:30.740Z,77.94
2019-06-15T00:05:01.950Z,77.38
2019-06-15T00:07:35.576Z,76.50
2019-06-15T00:10:06.905Z,74.57
2019-06-15T00:12:38.159Z,73.70
2019-06-15T00:15:10.420Z,72.78
2019-06-15T00:17:41.723Z,73.09
2019-06-15T00:20:13.225Z,73.79
2019-06-15T00:22:44.473Z,73.35
2019-06-15T00:25:15.875Z,74.20
2019-06-15T00:27:47.126Z,74.51
2019-06-15T00:30:19.002Z,74.92
2019-06-15T00:32:50.275Z,75.74
2019-06-15T00:35:21.479Z,75.53
2019-06-15T00:37:52.678Z,75.78
2019-06-15T00:40:24.385Z,75.23
2019-06-15T00:42:55.633Z,75.91
2019-06-15T00:45:26.888Z,77.01
2019-06-15T00:47:58.143Z,78.08
2019-06-15T00:50:29.435Z,78.84
2019-06-15T00:53:00.711Z,79.31
2019-06-15T00:55:31.986Z,79.05
2019-06-15T00:58:03.357Z,80.24
2019-06-15T01:00:34.687Z,81.84
2019-06-15T01:03:05.978Z,84.33
2019-06-15T01:05:37.269Z,85.20
2019-06-15T01:08:08.495Z,84.11
2019-06-15T01:10:39.828Z,85.02
2019-06-15T01:13:11.098Z,84.03
2019-06-15T01:15:42.320Z,83.07
2019-06-15T01:18:13.745Z,83.94
2019-06-15T01:20:45.015Z,85.36
2019-06-15T01:23:16.200Z,86.87
2019-06-15T01:25:47.470Z,85.81
2019-06-15T01:28:18.728Z,84.82
2019-06-15T01:30:50.121Z,84.81
2019-06-15T01:33:21.466Z,85.45
2019-06-15T01:35:52.740Z,84.29
2019-06-15T01:38:23.943Z,84.67
2019-06-15T01:40:55.187Z,85.05
2019-06-15T01:43:26.442Z,84.84
2019-06-15T01:45:57.786Z,85.25
2019-06-15T01:48:29.128Z,85.06
2019-06-15T01:51:00.376Z,84.56
2019-06-15T01:53:31.638Z,84.78
2019-06-15T01:56:02.907Z,85.40
2019-06-15T01:58:34.149Z,85.24
2019-06-15T02:01:05.773Z,85.59
2019-06-15T02:03:37.198Z,85.06
2019-06-15T02:06:08.414Z,85.63
2019-06-15T02:08:39.602Z,84.64
2019-06-15T02:11:10.914Z,83.24
2019-06-15T02:13:42.164Z,83.60
2019-06-15T02:16:13.309Z,83.71
2019-06-15T02:18:44.632Z,84.03
2019-06-15T02:21:15.869Z,83.85
2019-06-15T02:23:51.932Z,84.44
2019-06-15T02:26:23.160Z,85.72
2019-06-15T02:28:54.464Z,87.00
2019-06-15T02:31:25.751Z,88.27
2019-06-15T02:33:56.994Z,89.92
2019-06-15T02:36:28.362Z,90.77
2019-06-15T02:38:59.654Z,91.29
2019-06-15T02:41:31.013Z,91.92
2019-06-15T02:44:02.434Z,93.50
2019-06-15T02:46:33.715Z,93.13
2019-06-15T02:49:04.972Z,92.63
2019-06-15T02:51:36.325Z,92.34
2019-06-15T02:54:07.654Z,92.62
2019-06-15T02:56:38.886Z,93.16
2019-06-15T02:59:10.167Z,93.84
2019-06-15T03:01:41.380Z,93.82
2019-06-15T03:04:12.673Z,94.04
2019-06-15T03:06:44.423Z,94.21
2019-06-15T03:09:16.091Z,94.52
2019-06-15T03:11:47.485Z,94.01
2019-06-15T03:14:18.785Z,94.00
2019-06-15T03:16:50.073Z,94.17
2019-06-15T03:19:21.286Z,94.28
2019-06-15T03:21:52.487Z,94.49
2019-06-15T03:24:23.897Z,94.18
2019-06-15T03:26:55.223Z,94.04
2019-06-15T03:29:26.463Z,93.88
2019-06-15T03:31:57.727Z,93.21
2019-06-15T03:34:29.018Z,93.39
2019-06-15T03:37:00.262Z,92.56
2019-06-15T03:39:31.404Z,91.28
2019-06-15T03:42:02.680Z,90.29
2019-06-15T03:44:33.963Z,89.45
2019-06-15T03:47:05.254Z,88.68
2019-06-15T03:49:36.546Z,87.73
2019-06-15T03:52:07.796Z,88.22
2019-06-15T03:54:39.119Z,87.47
2019-06-15T03:57:10.307Z,86.68
2019-06-15T03:59:41.547Z,86.97
2019-06-15T04:02:12.853Z,87.75
2019-06-15T04:04:44.112Z,88.46
2019-06-15T04:07:15.401Z,89.06
2019-06-15T04:09:47.058Z,89.56
2019-06-15T04:12:18.437Z,89.31
2019-06-15T04:14:56.879Z,88.54
2019-06-15T04:17:28.226Z,88.48
2019-06-15T04:19:59.489Z,88.29
2019-06-15T04:22:30.746Z,87.66
2019-06-15T04:25:02.488Z,88.55
2019-06-15T04:27:33.920Z,88.35
2019-06-15T04:30:05.385Z,88.16
2019-06-15T04:32:36.688Z,88.56
2019-06-15T04:35:09.943Z,89.07
2019-06-15T04:37:41.283Z,90.54
2019-06-15T04:40:12.819Z,91.57
2019-06-15T04:42:44.105Z,92.13
2019-06-15T04:45:15.694Z,91.75
2019-06-15T04:47:46.985Z,91.56
2019-06-15T04:50:18.384Z,91.73
2019-06-15T04:52:49.625Z,91.99
2019-06-15T04:55:20.951Z,91.91
2019-06-15T04:57:52.250Z,92.10
2019-06-15T05:00:23.719Z,92.26
2019-06-15T05:02:55.065Z,92.22
2019-06-15T05:05:26.360Z,92.13
2019-06-15T05:07:57.654Z,92.52
2019-06-15T05:10:28.925Z,92.94
2019-06-15T05:13:00.198Z,92.92
2019-06-15T05:15:31.491Z,92.73
2019-06-15T05:18:02.908Z,92.47
2019-06-15T05:20:34.158Z,91.95
2019-06-15T05:23:05.457Z,91.81
2019-06-15T05:25:37.347Z,91.63
2019-06-15T05:28:08.592Z,91.62
2019-06-15T05:30:39.809Z,91.31
2019-06-15T05:33:11.118Z,91.41
2019-06-15T05:35:42.370Z,90.97
2019-06-15T05:38:14.104Z,90.29
2019-06-15T05:40:45.304Z,88.80
2019-06-15T05:43:16.657Z,88.08
2019-06-15T05:45:47.959Z,86.81
2019-06-15T05:48:19.307Z,86.12
2019-06-15T05:50:50.634Z,85.86
2019-06-15T05:53:21.873Z,85.36
2019-06-15T05:55:53.210Z,85.20
2019-06-15T05:58:24.367Z,85.02
2019-06-15T06:00:56.615Z,85.14
2019-06-15T06:03:27.891Z,85.67
2019-06-15T06:05:59.119Z,85.93
2019-06-15T06:08:30.395Z,86.33
2019-06-15T06:11:01.715Z,86.27
2019-06-15T06:13:33.035Z,86.14
2019-06-15T06:16:04.389Z,87.43
2019-06-15T06:18:36.090Z,88.04
2019-06-15T06:21:07.428Z,88.30
2019-06-15T06:23:38.776Z,88.18
2019-06-15T06:26:10.022Z,88.11
2019-06-15T06:28:56.301Z,88.27
2019-06-15T06:31:21.049Z,88.50
2019-06-15T06:33:52.304Z,89.13
2019-06-15T06:36:23.550Z,89.14
2019-06-15T06:38:54.795Z,89.18
2019-06-15T06:41:26.016Z,89.28
2019-06-15T06:43:57.493Z,89.79
2019-06-15T06:46:28.779Z,89.87
2019-06-15T06:49:00.092Z,90.25
2019-06-15T06:51:31.346Z,90.60
2019-06-15T06:54:02.626Z,90.87
2019-06-15T06:56:35.958Z,91.01
2019-06-15T06:59:07.306Z,90.83
2019-06-15T07:01:38.603Z,90.79
2019-06-15T07:04:11.554Z,90.00
2019-06-15T07:06:42.852Z,89.85
2019-06-15T07:09:14.188Z,89.87
2019-06-15T07:11:49.263Z,90.01
2019-06-15T07:14:23.339Z,89.10
2019-06-15T07:16:54.929Z,88.57
2019-06-15T07:19:27.033Z,88.45
2019-06-15T07:21:58.504Z,88.18
2019-06-15T07:24:30.376Z,88.25
2019-06-15T07:27:01.621Z,88.56
2019-06-15T07:29:32.947Z,89.03
2019-06-15T07:32:04.173Z,89.38
2019-06-15T07:34:35.431Z,88.78
2019-06-15T07:37:06.644Z,88.55
2019-06-15T07:39:37.862Z,88.35
2019-06-15T07:42:09.176Z,87.58
2019-06-15T07:44:40.475Z,85.82
2019-06-15T07:47:11.685Z,84.60
2019-06-15T07:49:43.060Z,83.30
2019-06-15T07:52:14.292Z,80.33
2019-06-15T07:54:45.698Z,80.11
2019-06-15T07:57:16.974Z,78.49
2019-06-15T07:59:48.279Z,74.97
2019-06-15T08:02:19.604Z,76.90
2019-06-15T08:04:50.852Z,71.79
2019-06-15T08:07:22.405Z,70.29
2019-06-15T08:09:53.740Z,68.25
2019-06-15T08:12:25.050Z,66.70
2019-06-15T08:14:56.405Z,64.69
2019-06-15T08:17:27.701Z,61.98
2019-06-15T08:20:35.105Z,64.96
2019-06-15T08:23:06.359Z,62.90
2019-06-15T08:25:37.652Z,60.70
2019-06-15T08:28:08.933Z,58.71
2019-06-15T08:30:44.810Z,57.57
2019-06-15T08:33:16.050Z,60.37
2019-06-15T08:35:47.445Z,62.55
2019-06-15T08:38:18.939Z,65.58
2019-06-15T08:40:50.262Z,65.99
2019-06-15T08:43:21.393Z,67.13
2019-06-15T08:45:52.715Z,70.73
2019-06-15T08:48:31.063Z,71.87
2019-06-15T08:51:02.288Z,73.09
2019-06-15T08:53:36.285Z,74.58
2019-06-15T08:56:07.578Z,75.73
2019-06-15T08:59:02.506Z,76.48
2019-06-15T09:01:33.754Z,75.76
2019-06-15T09:04:05.236Z,74.06
2019-06-15T09:06:55.873Z,73.50
2019-06-15T09:09:29.281Z,74.62
2019-06-15T09:12:02.832Z,77.00
2019-06-15T09:14:50.125Z,78.29
2019-06-15T09:17:21.499Z,79.27
2019-06-15T09:19:53.018Z,80.42
2019-06-15T09:22:24.441Z,81.17
2019-06-15T09:24:55.751Z,81.84
2019-06-15T09:27:26.936Z,81.52
2019-06-15T09:29:58.203Z,81.81
2019-06-15T09:32:29.492Z,81.89
2019-06-15T09:35:11.698Z,82.54
2019-06-15T09:37:43.740Z,83.21
2019-06-15T09:40:20.815Z,84.71
2019-06-15T09:42:52.505Z,84.72
2019-06-15T09:45:23.875Z,85.30
2019-06-15T09:47:55.128Z,85.32
2019-06-15T09:50:28.988Z,84.82
2019-06-15T09:53:00.287Z,84.25
2019-06-15T09:56:42.803Z,85.68
2019-06-15T09:59:25.875Z,86.55
2019-06-15T10:01:51.501Z,87.25
2019-06-15T10:04:22.938Z,87.92
2019-06-15T10:07:15.628Z,87.54
2019-06-15T10:09:53.707Z,87.49
2019-06-15T10:12:42.539Z,84.38
2019-06-15T10:15:18.069Z,82.13
2019-06-15T10:17:53.152Z,84.43
2019-06-15T10:20:44.391Z,81.54
2019-06-15T10:23:23.548Z,78.92
2019-06-15T10:26:16.759Z,73.84
2019-06-15T10:29:00.792Z,75.11
2019-06-15T10:31:39.226Z,74.78
2019-06-15T10:34:12.396Z,74.62
2019-06-15T10:36:54.199Z,74.62
2019-06-15T10:39:28.989Z,74.40
2019-06-15T10:42:16.110Z,71.01
2019-06-15T10:44:50.350Z,68.69
2019-06-15T10:47:22.009Z,71.58
2019-06-15T10:49:54.985Z,71.13
2019-06-15T10:52:27.460Z,72.20
2019-06-15T10:55:00.473Z,68.61
2019-06-15T10:57:32.160Z,66.23
2019-06-15T11:00:03.759Z,65.82
2019-06-15T11:02:35.109Z,63.91
2019-06-15T11:05:16.388Z,62.58
2019-06-15T11:07:52.754Z,61.13
2019-06-15T11:10:50.701Z,64.86
2019-06-15T11:13:29.380Z,63.74
2019-06-15T11:16:01.197Z,60.65
2019-06-15T11:18:33.179Z,60.74
2019-06-15T11:21:04.613Z,62.96
2019-06-15T11:23:36.010Z,60.76
2019-06-15T11:26:07.670Z,60.32
2019-06-15T11:28:39.131Z,62.42
2019-06-15T11:31:10.367Z,59.37
2019-06-15T11:33:41.794Z,60.51
2019-06-15T11:36:13.084Z,60.97
2019-06-15T11:38:44.358Z,60.94
2019-06-15T11:41:15.646Z,59.55
2019-06-15T11:43:46.936Z,58.50
2019-06-15T11:46:18.226Z,59.68
2019-06-15T11:48:49.559Z,58.14
2019-06-15T11:51:20.850Z,60.65
2019-06-15T11:53:52.127Z,60.80
2019-06-15T11:56:23.447Z,58.91
2019-06-15T11:58:54.689Z,58.96
2019-06-15T12:01:25.951Z,59.19
2019-06-15T12:03:57.207Z,57.79
2019-06-15T12:06:28.637Z,57.54
2019-06-15T12:08:59.899Z,57.85
2019-06-15T12:11:31.195Z,58.93
2019-06-15T12:14:02.482Z,57.38
2019-06-15T12:16:33.741Z,58.91
2019-06-15T12:19:14.824Z,57.63
2019-06-15T12:21:46.100Z,58.56
2019-06-15T12:24:17.360Z,57.89
2019-06-15T12:26:48.679Z,57.37
2019-06-15T12:29:21.620Z,56.92
2019-06-15T12:31:52.977Z,53.10
2019-06-15T12:34:24.250Z,53.16
2019-06-15T12:36:56.844Z,55.87
2019-06-15T12:39:28.209Z,53.78
2019-06-15T12:42:02.666Z,51.70
2019-06-15T12:44:37.499Z,54.44
2019-06-15T12:47:08.758Z,50.91
2019-06-15T12:49:40.027Z,52.53
2019-06-15T12:52:11.376Z,54.38
2019-06-15T12:54:42.633Z,55.35
2019-06-15T12:57:16.644Z,53.32
2019-06-15T12:59:48.120Z,52.34
2019-06-15T13:02:19.639Z,52.65
2019-06-15T13:04:50.884Z,51.57
2019-06-15T13:07:22.235Z,54.21
2019-06-15T13:09:53.452Z,54.21
2019-06-15T13:12:24.772Z,50.83
2019-06-15T13:14:56.056Z,52.35
2019-06-15T13:17:27.336Z,53.50
2019-06-15T13:19:58.615Z,55.46
2019-06-15T13:22:29.926Z,54.40
2019-06-15T13:25:01.210Z,54.10
2019-06-15T13:27:32.441Z,54.65
2019-06-15T13:30:03.590Z,51.75
2019-06-15T13:32:34.904Z,53.88
2019-06-15T13:35:06.602Z,53.68
2019-06-15T13:37:42.098Z,51.05
2019-06-15T13:40:10.797Z,53.22
2019-06-15T13:42:42.561Z,54.77
2019-06-15T13:45:14.611Z,53.21
2019-06-15T13:47:45.992Z,53.43
2019-06-15T13:50:20.030Z,52.49
2019-06-15T13:52:56.613Z,54.65
2019-06-15T13:55:27.946Z,55.52
2019-06-15T13:57:59.214Z,55.27
2019-06-15T14:00:30.756Z,54.04
2019-06-15T14:03:02.134Z,50.35
2019-06-15T14:05:33.467Z,51.97
2019-06-15T14:08:05.344Z,55.04
2019-06-15T14:10:37.874Z,49.64
2019-06-15T14:13:21.377Z,50.91
2019-06-15T14:15:48.452Z,51.49
2019-06-15T14:18:28.647Z,52.75
2019-06-15T14:21:01.076Z,51.22
2019-06-15T14:23:32.377Z,50.41
2019-06-15T14:26:03.644Z,49.59
2019-06-15T14:28:34.899Z,49.06
2019-06-15T14:31:06.267Z,52.71
2019-06-15T14:33:37.530Z,51.72
2019-06-15T14:36:08.965Z,52.76
2019-06-15T14:38:40.723Z,51.57
2019-06-15T14:41:12.131Z,52.35
2019-06-15T14:43:43.378Z,48.60
2019-06-15T14:46:15.266Z,51.12
2019-06-15T14:48:49.046Z,47.44
2019-06-15T14:51:28.261Z,47.68
2019-06-15T14:54:01.847Z,48.75
2019-06-15T14:56:33.187Z,47.56
2019-06-15T14:59:05.664Z,51.44
2019-06-15T15:01:36.957Z,51.52
2019-06-15T15:04:08.127Z,52.16
2019-06-15T15:06:39.388Z,52.81
2019-06-15T15:09:10.534Z,52.07
2019-06-15T15:11:41.823Z,50.04
2019-06-15T15:14:20.335Z,50.58
2019-06-15T15:16:51.332Z,52.70
2019-06-15T15:19:49.556Z,55.32
2019-06-15T15:22:21.917Z,54.77
2019-06-15T15:24:55.959Z,50.08
2019-06-15T15:27:27.257Z,46.17
2019-06-15T15:29:58.694Z,46.61
2019-06-15T15:32:31.624Z,44.42
2019-06-15T15:35:02.919Z,44.21
2019-06-15T15:37:40.644Z,40.79
2019-06-15T15:40:16.664Z,41.98
2019-06-15T15:42:52.200Z,45.17
2019-06-15T15:45:26.957Z,45.37
2019-06-15T15:48:08.777Z,47.30
2019-06-15T15:50:40.162Z,44.48
2019-06-15T15:53:14.388Z,47.05
2019-06-15T15:55:58.082Z,47.33
2019-06-15T15:58:46.891Z,45.22
2019-06-15T16:01:17.342Z,45.78
2019-06-15T16:03:49.176Z,44.93
2019-06-15T16:06:21.962Z,44.54
2019-06-15T16:09:11.254Z,42.63
2019-06-15T16:11:46.309Z,42.87
2019-06-15T16:14:37.760Z,39.96
2019-06-15T16:17:09.112Z,40.76
2019-06-15T16:19:40.572Z,39.82
2019-06-15T16:23:28.338Z,38.67
2019-06-15T16:26:00.028Z,38.14
2019-06-15T16:28:36.647Z,36.47
2019-06-15T16:31:13.149Z,38.16
2019-06-15T16:33:46.312Z,38.42
2019-06-15T16:36:16.928Z,37.98
2019-06-15T16:38:52.434Z,39.39
2019-06-15T16:41:25.787Z,40.07
2019-06-15T16:43:56.926Z,39.67
2019-06-15T16:46:36.726Z,41.80
2019-06-15T16:49:26.905Z,42.49
2019-06-15T16:52:02.973Z,42.29
2019-06-15T16:54:40.356Z,44.28
2019-06-15T16:57:17.257Z,44.84
2019-06-15T16:59:56.772Z,46.44
2019-06-15T17:02:29.593Z,46.95
2019-06-15T17:05:00.960Z,48.08
2019-06-15T17:20:19.455Z,49.59
2019-06-15T17:23:16.362Z,50.18
2019-06-15T17:25:59.965Z,50.65
2019-06-15T17:28:48.671Z,50.52
2019-06-15T17:31:39.880Z,50.24
2019-06-15T17:34:21.545Z,50.51
2019-06-15T17:39:56.376Z,49.18
2019-06-15T17:42:37.789Z,49.89
2019-06-15T17:45:20.030Z,49.22
2019-06-15T17:47:56.877Z,50.94
2019-06-15T17:50:38.664Z,50.32
2019-06-15T17:53:13.039Z,50.69
2019-06-15T17:56:26.833Z,51.53
2019-06-15T17:59:02.889Z,51.63
2019-06-15T18:02:02.862Z,51.09
2019-06-15T18:04:43.639Z,51.61
2019-06-15T18:10:56.392Z,50.34
2019-06-15T18:17:28.429Z,49.18
2019-06-15T18:20:03.342Z,49.76
2019-06-15T18:22:38.045Z,51.33
2019-06-15T18:25:21.840Z,49.16
2019-06-15T18:28:08.316Z,51.68
2019-06-15T18:30:40.005Z,49.83
2019-06-15T18:33:16.295Z,50.06
2019-06-15T18:35:47.959Z,50.43
2019-06-15T18:38:20.147Z,51.34
2019-06-15T18:40:51.348Z,52.55
2019-06-15T18:43:22.615Z,51.56
2019-06-15T18:45:56.771Z,51.89
2019-06-15T18:48:28.144Z,51.88
2019-06-15T18:50:59.495Z,54.28
2019-06-15T18:53:31.225Z,54.26
2019-06-15T18:56:02.490Z,55.70
2019-06-15T18:58:33.820Z,55.48
2019-06-15T19:01:06.947Z,55.88
2019-06-15T19:03:37.995Z,56.08
2019-06-15T19:06:09.324Z,55.39
2019-06-15T19:09:59.493Z,55.98
2019-06-15T19:12:38.525Z,55.75
2019-06-15T19:15:12.993Z,57.43
2019-06-15T19:17:46.328Z,58.25
2019-06-15T19:20:26.311Z,58.39
2019-06-15T19:22:59.431Z,59.31
2019-06-15T19:25:41.199Z,59.59
2019-06-15T19:28:22.738Z,60.22
2019-06-15T19:31:16.122Z,60.98
2019-06-15T19:34:16.237Z,60.97
2019-06-15T19:36:46.825Z,62.05
2019-06-15T19:39:46.156Z,61.59
2019-06-15T19:42:30.733Z,62.05
2019-06-15T19:45:07.724Z,61.85
2019-06-15T19:47:46.840Z,61.98
2019-06-15T19:50:36.217Z,62.21
2019-06-15T19:53:14.165Z,62.36
2019-06-15T19:55:48.232Z,63.10
2019-06-15T19:58:19.544Z,63.92
2019-06-15T20:00:50.870Z,64.02
2019-06-15T20:03:30.155Z,64.65
2019-06-15T20:06:06.196Z,65.03
2019-06-15T20:08:36.911Z,64.99
2019-06-15T20:11:08.245Z,65.34
2019-06-15T20:14:36.843Z,65.55
2019-06-15T20:17:08.239Z,66.09
2019-06-15T20:19:40.477Z,67.21
2019-06-15T20:22:11.722Z,66.82
2019-06-15T20:24:47.389Z,65.83
2019-06-15T20:27:18.786Z,63.35
2019-06-15T20:29:51.115Z,64.06
2019-06-15T20:32:22.516Z,64.87
2019-06-15T20:34:53.855Z,64.90
2019-06-15T20:37:26.300Z,64.72
2019-06-15T20:39:57.599Z,65.00
2019-06-15T20:42:28.833Z,65.29
2019-06-15T20:45:02.427Z,66.18
2019-06-15T20:47:52.759Z,66.90
2019-06-15T20:50:28.125Z,67.35
2019-06-15T20:52:56.959Z,68.04
2019-06-15T20:55:28.247Z,68.30
2019-06-15T20:57:59.531Z,67.66
2019-06-15T21:00:30.833Z,67.49
2019-06-15T21:03:01.972Z,66.94
2019-06-15T21:05:38.030Z,66.60
2019-06-15T21:08:06.869Z,66.91
2019-06-15T21:10:49.195Z,67.52
2019-06-15T21:13:26.210Z,68.13
2019-06-15T21:15:56.991Z,68.31
2019-06-15T21:18:28.411Z,69.07
2019-06-15T21:20:59.714Z,68.35
2019-06-15T21:23:30.931Z,68.36
2019-06-15T21:26:02.299Z,67.77
2019-06-15T21:28:33.600Z,68.39
2019-06-15T21:31:04.910Z,68.96
2019-06-15T21:33:36.267Z,68.82
2019-06-15T21:36:07.798Z,68.67
2019-06-15T21:38:39.078Z,68.77
2019-06-15T21:41:10.461Z,69.68
2019-06-15T21:43:41.799Z,70.29
2019-06-15T21:46:32.770Z,70.46
2019-06-15T21:49:07.047Z,71.04
2019-06-15T21:51:42.588Z,71.40
2019-06-15T21:54:15.865Z,71.87
2019-06-15T21:56:47.120Z,71.39
2019-06-15T21:59:36.968Z,71.74
2019-06-15T22:02:42.669Z,71.46
2019-06-15T22:05:17.579Z,71.43
2019-06-15T22:07:56.627Z,71.89
2019-06-15T22:10:29.828Z,71.90
2019-06-15T22:13:03.522Z,72.54
2019-06-15T22:15:39.949Z,73.16
2019-06-15T22:18:11.541Z,74.08
2019-06-15T22:20:59.586Z,75.24
2019-06-15T22:23:36.438Z,76.15
2019-06-15T22:26:08.693Z,76.87
2019-06-15T22:28:40.063Z,77.50
2019-06-15T22:31:12.749Z,77.69
2019-06-15T22:33:47.070Z,77.98
2019-06-15T22:36:24.690Z,78.51
2019-06-15T22:38:50.374Z,78.99
2019-06-15T22:41:21.617Z,79.24
2019-06-15T22:43:52.952Z,79.29
2019-06-15T22:46:26.247Z,79.80
2019-06-15T22:48:57.188Z,80.66
2019-06-15T22:51:28.423Z,80.91
2019-06-15T22:53:59.661Z,81.41
2019-06-15T22:56:30.952Z,81.93
2019-06-15T22:59:02.249Z,82.33
2019-06-15T23:01:33.533Z,82.90
2019-06-15T23:04:06.629Z,83.23
2019-06-15T23:06:41.418Z,83.24
2019-06-15T23:09:10.615Z,83.32
2019-06-15T23:11:41.860Z,83.25
2019-06-15T23:14:13.068Z,83.16
2019-06-15T23:16:47.256Z,83.05
2019-06-15T23:19:17.519Z,83.07
2019-06-15T23:21:48.674Z,82.77
2019-06-15T23:24:19.957Z,82.62
2019-06-15T23:26:51.245Z,82.30
2019-06-15T23:29:22.617Z,81.97
2019-06-15T23:31:57.014Z,81.66
2019-06-15T23:34:27.233Z,81.64
2019-06-15T23:37:00.936Z,81.30
2019-06-15T23:39:32.354Z,80.73
2019-06-15T23:42:06.006Z,79.41
2019-06-15T23:44:36.649Z,78.44
2019-06-15T23:47:07.993Z,78.60
2019-06-15T23:49:39.238Z,77.85
2019-06-15T23:52:10.495Z,78.07
2019-06-15T23:54:41.776Z,78.45
2019-06-15T23:57:12.968Z,78.26
2019-06-15T23:59:46.447Z,78.28
